Terminal Aerodrome Forecast
Issued by NWS Sioux Falls, SD

Home | Current Version | Previous Version | Text Only | Print | Product List | Glossary On
Versions: 1 2 3 4 5 6 7 8 9 10 11 12 13 14 15 16 17 18 19 20 21 22 23 24 25 26 27 28 29 30 31 32 33 34
000
FTUS43 KFSD 250208 AAA
TAFSUX
TAF AMD
KSUX 250208Z 2502/2524 13010KT P6SM SCT015
     FM250500 10009KT P6SM OVC025
     FM251000 05010KT 5SM BR OVC008
      TEMPO 2510/2513 4SM -SHRA BR
     FM251500 04013KT P6SM OVC014
     FM251700 06014KT P6SM BKN022
     FM252000 07014KT P6SM BKN035=

USA.gov is the U.S. government's official web portal to all federal, state and local government web resources and services.